Terminal Aerodrome Forecast
Issued by NWS

Home | Current Version | Previous Version | Text Only | Print | Product List | Glossary On
Versions: 1 2 3 4 5 6 7 8 9 10 11 12 13 14 15 16 17 18 19 20
725
FTUS41 KILN 041120
TAFLCK
TAF
KLCK 041120Z 0412/0512 11005KT P6SM OVC120
     FM041800 12007KT P6SM OVC090
     FM042000 12007KT P6SM VCSH OVC050
     FM042300 12007KT 4SM -RA BR OVC025
     FM050100 14006KT 4SM -RA BR OVC012
     FM050300 16006KT 4SM -RA BR OVC006
     FM050500 25008KT P6SM OVC006=

USA.gov is the U.S. government's official web portal to all federal, state and local government web resources and services.